createdAt,value
2018-08-13T00:01:25.977Z,8.7
2018-08-13T00:11:27.691Z,11.2
2018-08-13T00:21:25.655Z,13.0
2018-08-13T00:31:25.729Z,12.0
2018-08-13T00:41:27.058Z,9.1
2018-08-13T00:51:26.357Z,10.1
2018-08-13T01:01:26.733Z,10.9
2018-08-13T01:11:27.032Z,8.3
2018-08-13T01:21:25.855Z,8.9
2018-08-13T01:31:26.002Z,9.4
2018-08-13T01:41:27.692Z,11.8
2018-08-13T01:51:27.955Z,8.6
2018-08-13T02:01:26.016Z,8.9
2018-08-13T02:11:27.812Z,6.9
2018-08-13T02:21:27.130Z,11.0
2018-08-13T02:31:27.105Z,8.0
2018-08-13T02:41:26.298Z,11.5
2018-08-13T02:51:26.456Z,8.1
2018-08-13T03:01:28.781Z,9.2
2018-08-13T03:11:28.104Z,7.9
2018-08-13T03:21:27.495Z,8.9
2018-08-13T03:31:27.285Z,10.2
2018-08-13T03:41:26.901Z,10.9
2018-08-13T03:51:26.672Z,8.9
2018-08-13T04:01:26.760Z,12.9
2018-08-13T04:11:26.904Z,8.6
2018-08-13T04:21:26.180Z,10.0
2018-08-13T04:31:26.165Z,15.9
2018-08-13T04:41:26.913Z,9.8
2018-08-13T04:51:27.092Z,14.7
2018-08-13T05:01:26.573Z,13.1
2018-08-13T05:11:26.470Z,12.3
2018-08-13T05:21:26.858Z,12.4
2018-08-13T05:31:25.688Z,11.1
2018-08-13T05:41:26.073Z,11.6
2018-08-13T05:51:26.185Z,13.0
2018-08-13T06:01:26.322Z,9.6
2018-08-13T06:11:28.010Z,14.6
2018-08-13T06:21:27.866Z,9.7
2018-08-13T06:31:26.111Z,9.9
2018-08-13T06:41:28.282Z,7.7
2018-08-13T06:51:26.729Z,12.4
2018-08-13T07:01:25.918Z,9.4
2018-08-13T07:11:25.873Z,14.9
2018-08-13T07:21:26.491Z,14.2
2018-08-13T07:31:27.717Z,14.9
2018-08-13T07:41:25.970Z,10.6
2018-08-13T07:51:27.714Z,6.8
2018-08-13T08:01:25.635Z,11.9
2018-08-13T08:11:26.953Z,10.1
2018-08-13T08:21:26.244Z,5.9
2018-08-13T08:31:30.093Z,7.3
2018-08-13T08:41:27.095Z,8.1
2018-08-13T08:51:26.102Z,8.2
2018-08-13T09:01:26.031Z,7.8
2018-08-13T09:11:27.918Z,5.5
2018-08-13T09:21:26.035Z,8.7
2018-08-13T09:31:25.898Z,7.3
2018-08-13T09:41:25.922Z,9.4
2018-08-13T09:51:25.838Z,9.6
2018-08-13T10:01:26.532Z,9.6
2018-08-13T10:11:29.804Z,7.1
2018-08-13T10:21:26.065Z,7.8
2018-08-13T10:31:27.451Z,7.7
2018-08-13T10:41:27.363Z,7.0
2018-08-13T10:51:26.704Z,7.6
2018-08-13T11:01:25.656Z,8.0
2018-08-13T11:11:26.654Z,11.2
2018-08-13T11:21:26.435Z,7.9
2018-08-13T11:31:26.529Z,6.6
2018-08-13T11:41:26.587Z,13.8
2018-08-13T11:51:26.599Z,8.5
2018-08-13T12:01:25.838Z,7.4
2018-08-13T12:11:26.718Z,11.5
2018-08-13T12:21:26.676Z,7.6
2018-08-13T12:31:26.750Z,10.7
2018-08-13T12:41:25.665Z,8.6
2018-08-13T12:51:28.163Z,9.2
2018-08-13T13:01:26.920Z,9.8
2018-08-13T13:11:26.476Z,8.0
2018-08-13T13:21:26.911Z,12.8
2018-08-13T13:31:25.929Z,10.3
2018-08-13T13:41:26.155Z,10.7
2018-08-13T13:51:26.117Z,8.4
2018-08-13T14:01:26.156Z,10.7
2018-08-13T14:11:26.401Z,9.3
2018-08-13T14:21:27.091Z,8.4
2018-08-13T14:31:27.866Z,8.0
2018-08-13T14:41:25.781Z,5.3
2018-08-13T14:51:26.213Z,9.9
2018-08-13T15:01:26.558Z,7.4
2018-08-13T15:11:26.545Z,7.0
2018-08-13T15:21:25.904Z,8.0
2018-08-13T15:31:28.497Z,6.3
2018-08-13T15:41:26.830Z,8.4
2018-08-13T15:51:26.833Z,9.7
2018-08-13T16:01:27.617Z,6.1
2018-08-13T16:11:25.968Z,5.6
2018-08-13T16:21:26.153Z,6.0
2018-08-13T16:31:31.865Z,7.9
2018-08-13T16:41:26.438Z,8.1
2018-08-13T16:51:26.307Z,11.1
2018-08-13T17:01:26.332Z,7.8
2018-08-13T17:11:27.650Z,9.6
2018-08-13T17:21:26.090Z,8.8
2018-08-13T17:31:27.592Z,12.3
2018-08-13T17:41:26.867Z,9.3
2018-08-13T17:51:25.658Z,13.4
2018-08-13T18:01:26.831Z,12.2
2018-08-13T18:11:26.486Z,8.7
2018-08-13T18:21:26.126Z,10.3
2018-08-13T18:31:27.421Z,17.0
2018-08-13T18:41:27.510Z,15.9
2018-08-13T18:51:26.805Z,16.4
2018-08-13T19:01:26.491Z,15.9
2018-08-13T19:11:27.292Z,12.6
2018-08-13T19:21:27.621Z,13.2
2018-08-13T19:31:25.703Z,17.9
2018-08-13T19:41:26.784Z,16.9
2018-08-13T19:51:27.880Z,18.0
2018-08-13T20:01:27.569Z,16.1
2018-08-13T20:11:29.142Z,19.7
2018-08-13T20:21:26.274Z,24.3
2018-08-13T20:31:26.163Z,20.7
2018-08-13T20:41:26.085Z,24.6
2018-08-13T20:51:26.862Z,18.7
2018-08-13T21:01:25.809Z,23.7
2018-08-13T21:11:25.766Z,24.5
2018-08-13T21:21:26.474Z,19.3
2018-08-13T21:31:26.539Z,20.7
2018-08-13T21:41:25.539Z,25.2
2018-08-13T21:51:26.480Z,26.2
2018-08-13T22:01:26.891Z,23.4
2018-08-13T22:11:26.753Z,25.3
2018-08-13T22:21:25.990Z,23.4
2018-08-13T22:31:26.421Z,29.9
2018-08-13T22:41:26.477Z,24.8
2018-08-13T22:51:26.018Z,34.1
2018-08-13T23:01:27.505Z,23.6
2018-08-13T23:11:27.618Z,24.7
2018-08-13T23:21:25.768Z,28.6
2018-08-13T23:31:25.644Z,26.0
2018-08-13T23:41:26.115Z,27.6
2018-08-13T23:51:26.934Z,26.4
